Time;durP1;ratioP1;P1;durP2;ratioP2;P2;SDS_P1;SDS_P2;PMS_P1;PMS_P2;Temp;Humidity;BMP_temperature;BMP_pressure;BME280_temperature;BME280_humidity;BME280_pressure;Samples;Min_cycle;Max_cycle;Signal;HPM_P1;HPM_P2
2022/10/22 00:00:18;;;;;;;59.90;32.80;;;;;;;8.34;83.81;98274.54;106518;1309;138274;-77
2022/10/22 00:03:04;;;;;;;61.30;34.30;;;;;;;8.35;83.88;98283.02;106638;1309;22089;-77
2022/10/22 00:05:30;;;;;;;57.70;31.00;;;;;;;8.36;83.89;98288.89;106537;1309;138206;-77
2022/10/22 00:07:57;;;;;;;57.40;32.80;;;;;;;8.36;83.89;98290.73;106653;1309;22118;-77
2022/10/22 00:10:23;;;;;;;53.20;29.90;;;;;;;8.38;83.91;98287.63;106577;1293;138553;-77
2022/10/22 00:12:49;;;;;;;51.90;31.40;;;;;;;8.39;83.88;98286.84;106721;1310;22326;-77
2022/10/22 00:15:15;;;;;;;53.60;32.00;;;;;;;8.40;84.01;98285.36;107003;1288;22124;-77
2022/10/22 00:17:41;;;;;;;51.70;30.70;;;;;;;8.40;84.06;98284.91;106601;1301;138200;-77
2022/10/22 00:20:08;;;;;;;46.40;26.30;;;;;;;8.38;83.95;98282.53;106965;1289;22180;-77
2022/10/22 00:22:34;;;;;;;52.20;28.90;;;;;;;8.35;84.09;98275.96;106777;1302;138570;-77
2022/10/22 00:25:00;;;;;;;48.90;28.30;;;;;;;8.34;84.26;98271.33;106592;1309;22149;-77
2022/10/22 00:27:26;;;;;;;46.60;26.70;;;;;;;8.33;84.44;98269.28;106664;1309;22120;-77
2022/10/22 00:29:52;;;;;;;52.30;27.50;;;;;;;8.32;84.42;98267.42;106471;1296;138203;-77
2022/10/22 00:32:18;;;;;;;48.50;27.40;;;;;;;8.33;84.66;98260.45;106630;1309;22278;-77
2022/10/22 00:34:47;;;;;;;46.90;26.50;;;;;;;8.32;84.46;98264.33;106547;1308;138534;-77
2022/10/22 00:37:13;;;;;;;;;;;;;;;8.32;84.61;98262.37;106665;1297;22372;-77
2022/10/22 00:39:39;;;;;;;45.50;25.10;;;;;;;8.32;84.61;98262.05;106690;1293;22154;-77
2022/10/22 00:42:05;;;;;;;46.00;25.50;;;;;;;8.31;84.60;98259.20;106609;1309;138241;-77
2022/10/22 00:45:10;;;;;;;45.40;27.30;;;;;;;8.33;84.61;98260.40;106871;1288;22065;-77
2022/10/22 00:47:45;;;;;;;45.00;26.40;;;;;;;8.35;84.59;98264.40;106544;1309;138227;-77
2022/10/22 00:50:15;;;;;;;46.00;25.00;;;;;;;8.36;84.77;98275.66;106647;1296;22115;-77
2022/10/22 00:52:41;;;;;;;43.80;25.30;;;;;;;8.36;84.50;98268.55;106520;1303;138495;-77
2022/10/22 00:55:13;;;;;;;44.80;26.30;;;;;;;8.38;84.73;98266.95;106651;1306;22063;-77
2022/10/22 00:57:40;;;;;;;46.40;27.50;;;;;;;8.39;84.52;98265.89;106648;1307;22205;-77
2022/10/22 01:00:07;;;;;;;46.30;26.60;;;;;;;8.40;84.58;98267.76;106418;1296;138589;-77
2022/10/22 01:02:33;;;;;;;42.30;25.10;;;;;;;8.39;84.41;98266.98;106707;1310;22103;-77
2022/10/22 01:04:59;;;;;;;48.70;26.80;;;;;;;8.37;84.43;98262.92;106652;1304;138584;-77
2022/10/22 01:07:25;;;;;;;44.10;25.60;;;;;;;8.35;84.35;98269.78;106731;1299;22121;-77
2022/10/22 01:10:35;;;;;;;49.10;26.30;;;;;;;8.33;84.33;98272.34;106676;1308;22956;-77
2022/10/22 01:13:31;;;;;;;48.00;27.30;;;;;;;8.33;84.39;98267.83;105998;1316;22607;-77
2022/10/22 01:16:24;;;;;;;46.40;25.40;;;;;;;8.32;84.26;98256.36;106119;1316;22303;-78
2022/10/22 01:19:08;;;;;;;47.40;26.90;;;;;;;8.32;84.28;98250.64;106072;1316;22302;-77
2022/10/22 01:21:49;;;;;;;44.90;25.40;;;;;;;8.30;84.29;98244.03;106178;1302;22619;-77
2022/10/22 01:24:35;;;;;;;45.50;26.40;;;;;;;8.28;84.35;98250.67;106146;1315;138533;-78
2022/10/22 01:27:06;;;;;;;43.50;25.00;;;;;;;8.26;84.26;98250.95;106239;1316;22475;-77
2022/10/22 01:29:37;;;;;;;46.30;26.20;;;;;;;8.26;84.14;98244.75;106182;1316;138532;-77
2022/10/22 01:32:20;;;;;;;49.10;26.40;;;;;;;8.22;84.09;98247.06;106471;1295;23043;-77
2022/10/22 01:34:51;;;;;;;46.80;25.90;;;;;;;8.20;84.05;98250.20;106416;1309;138537;-77
2022/10/22 01:37:21;;;;;;;46.30;26.50;;;;;;;8.18;84.28;98248.00;106103;1316;22163;-77
2022/10/22 01:39:48;;;;;;;;;;;;;;;8.16;84.29;98251.36;106091;1316;22429;-78
2022/10/22 01:42:14;;;;;;;47.40;26.90;;;;;;;8.15;84.38;98250.36;105989;1308;124370;-77
2022/10/22 01:44:41;;;;;;;39.40;23.80;;;;;;;8.13;84.04;98250.67;105993;1316;22921;-77
2022/10/22 01:47:31;;;;;;;46.00;26.60;;;;;;;8.11;84.06;98249.29;106358;1308;138467;-77
2022/10/22 01:50:12;;;;;;;44.90;26.40;;;;;;;8.09;84.10;98249.03;106316;1309;22167;-77
2022/10/22 01:53:04;;;;;;;43.50;25.60;;;;;;;8.07;84.15;98247.23;106498;1309;138275;-77
2022/10/22 01:56:07;;;;;;;45.10;25.70;;;;;;;8.03;83.79;98249.08;106601;1309;22167;-77
2022/10/22 01:58:48;;;;;;;46.20;27.40;;;;;;;7.99;84.07;98254.54;106492;1309;138597;-77
2022/10/22 02:01:22;;;;;;;52.80;29.70;;;;;;;7.95;84.09;98251.34;106592;1296;22079;-77
2022/10/22 02:03:59;;;;;;;46.90;28.10;;;;;;;7.92;84.18;98246.75;106991;1287;22063;-77
2022/10/22 02:06:26;;;;;;;45.60;27.10;;;;;;;7.88;84.12;98242.70;106581;1310;138447;-77
2022/10/22 02:08:55;;;;;;;50.90;29.20;;;;;;;7.85;83.96;98235.95;106718;1310;22114;-78
2022/10/22 02:11:21;;;;;;;56.90;28.60;;;;;;;7.81;84.10;98230.89;106429;1304;138390;-77
2022/10/22 02:13:52;;;;;;;46.50;26.70;;;;;;;7.76;84.18;98223.98;106601;1304;22813;-77
2022/10/22 02:16:25;;;;;;;47.40;26.70;;;;;;;7.72;84.23;98227.84;106739;1302;138188;-76
2022/10/22 02:18:55;;;;;;;45.70;27.40;;;;;;;7.69;84.24;98234.90;106574;1309;22382;-77
2022/10/22 02:21:21;;;;;;;46.10;26.70;;;;;;;7.66;84.16;98234.66;106591;1295;22108;-77
2022/10/22 02:23:50;;;;;;;47.40;26.80;;;;;;;7.61;84.14;98236.76;106853;1303;138002;-77
2022/10/22 02:26:32;;;;;;;45.70;27.00;;;;;;;7.57;84.23;98231.40;106705;1307;22844;-77
2022/10/22 02:29:34;;;;;;;42.90;25.70;;;;;;;7.55;84.60;98225.02;106633;1309;138373;-77
2022/10/22 02:32:02;;;;;;;49.90;26.70;;;;;;;7.53;84.47;98230.10;106089;1305;22127;-77
2022/10/22 02:34:31;;;;;;;42.80;25.50;;;;;;;7.50;84.64;98236.35;105949;1315;138347;-77
2022/10/22 02:37:00;;;;;;;43.20;25.90;;;;;;;7.47;84.51;98235.80;105932;1315;22950;-77
2022/10/22 02:39:28;;;;;;;45.40;27.00;;;;;;;7.44;84.95;98241.09;106066;1315;22166;-77
2022/10/22 02:41:56;;;;;;;48.50;26.90;;;;;;;7.42;84.78;98246.29;106306;1308;138415;-77
2022/10/22 02:44:23;;;;;;;46.80;26.80;;;;;;;7.40;84.81;98244.52;106109;1316;22166;-77
2022/10/22 02:46:50;;;;;;;47.30;27.40;;;;;;;7.38;85.21;98241.85;106009;1309;138223;-77
2022/10/22 02:49:16;;;;;;;50.10;27.80;;;;;;;7.35;84.79;98237.76;106114;1316;22129;-77
2022/10/22 02:51:42;;;;;;;46.80;26.70;;;;;;;7.33;85.27;98242.16;106106;1306;22400;-77
2022/10/22 02:54:09;;;;;;;47.60;26.80;;;;;;;7.31;84.92;98245.06;105996;1315;138021;-77
2022/10/22 02:56:35;;;;;;;51.30;29.40;;;;;;;7.22;84.41;98241.78;106053;1307;23030;-77
2022/10/22 02:59:01;;;;;;;49.20;29.00;;;;;;;7.13;84.58;98240.63;105966;1315;138546;-77
2022/10/22 03:01:27;;;;;;;50.30;28.60;;;;;;;7.08;84.65;98233.83;106462;1301;22369;-78
2022/10/22 03:03:53;;;;;;;44.40;25.90;;;;;;;7.04;84.81;98231.33;106105;1302;22196;-77
2022/10/22 03:06:19;;;;;;;42.90;25.60;;;;;;;7.00;84.87;98235.05;106014;1300;138035;-77
2022/10/22 03:08:46;;;;;;;48.40;26.20;;;;;;;6.95;84.99;98235.73;106325;1310;23074;-77
2022/10/22 03:11:12;;;;;;;43.40;26.90;;;;;;;6.90;85.12;98227.47;106624;1308;138565;-77
2022/10/22 03:13:38;;;;;;;46.30;27.60;;;;;;;6.87;85.28;98223.96;106656;1293;22236;-78
2022/10/22 03:16:05;;;;;;;49.20;28.50;;;;;;;6.84;85.37;98223.67;106664;1308;22101;-77
2022/10/22 03:18:31;;;;;;;54.90;28.70;;;;;;;6.82;85.66;98231.31;106542;1309;138075;-77
2022/10/22 03:21:20;;;;;;;44.20;27.00;;;;;;;6.80;85.56;98237.58;106622;1308;22068;-77
2022/10/22 03:23:47;;;;;;;49.90;28.30;;;;;;;6.77;85.97;98242.55;106526;1295;137923;-77
2022/10/22 03:26:15;;;;;;;52.90;28.50;;;;;;;6.76;85.86;98240.54;106574;1304;22347;-78
2022/10/22 03:28:41;;;;;;;53.50;30.20;;;;;;;6.76;86.33;98237.23;106556;1309;138772;-77
2022/10/22 03:31:10;;;;;;;53.50;28.90;;;;;;;6.73;86.12;98232.91;106560;1304;22093;-77
2022/10/22 03:33:36;;;;;;;48.30;27.40;;;;;;;6.71;86.14;98221.67;106673;1293;22099;-77
2022/10/22 03:36:03;;;;;;;47.60;28.30;;;;;;;6.68;86.26;98223.02;106472;1286;139084;-77
2022/10/22 03:38:29;;;;;;;47.40;28.40;;;;;;;6.67;86.76;98234.91;106700;1309;22190;-77
2022/10/22 03:40:58;;;;;;;48.30;28.60;;;;;;;6.66;86.68;98236.90;106607;1307;138218;-77
2022/10/22 03:43:24;;;;;;;45.20;26.10;;;;;;;6.60;86.01;98239.13;106901;1294;22906;-77
2022/10/22 03:45:50;;;;;;;54.50;29.90;;;;;;;6.48;85.89;98246.79;106640;1309;22247;-77
2022/10/22 03:48:16;;;;;;;51.90;30.00;;;;;;;6.38;85.68;98248.48;106575;1309;138064;-77
2022/10/22 03:50:42;;;;;;;52.40;30.60;;;;;;;6.33;86.05;98249.33;106652;1309;22137;-77
2022/10/22 03:53:20;;;;;;;50.40;29.70;;;;;;;6.30;86.59;98247.55;106547;1299;137998;-77
2022/10/22 03:55:46;;;;;;;49.60;28.90;;;;;;;6.30;86.84;98245.32;107016;1300;22005;-77
2022/10/22 03:58:12;;;;;;;50.20;29.40;;;;;;;6.31;87.29;98244.64;106991;1295;22094;-77
2022/10/22 04:00:39;;;;;;;47.80;30.00;;;;;;;6.31;87.37;98242.14;106625;1310;137905;-77
2022/10/22 04:03:05;;;;;;;54.20;30.00;;;;;;;6.30;87.53;98234.50;106700;1298;23209;-77
2022/10/22 04:05:32;;;;;;;49.70;30.00;;;;;;;6.30;87.59;98225.63;106508;1309;138145;-77
2022/10/22 04:07:59;;;;;;;50.60;30.40;;;;;;;6.28;87.57;98214.55;106549;1309;22066;-77
2022/10/22 04:10:25;;;;;;;51.90;29.30;;;;;;;6.29;87.89;98221.54;106535;1308;138480;-77
2022/10/22 04:12:51;;;;;;;51.00;29.90;;;;;;;6.27;87.70;98224.41;106624;1309;22899;-77
2022/10/22 04:15:17;;;;;;;49.40;28.20;;;;;;;6.26;87.66;98220.75;106691;1299;22076;-77
2022/10/22 04:17:43;;;;;;;51.70;28.80;;;;;;;6.25;87.76;98215.20;106621;1301;138370;-77
2022/10/22 04:20:10;;;;;;;47.90;28.50;;;;;;;6.22;87.65;98211.38;106994;1295;22088;-77
2022/10/22 04:22:36;;;;;;;48.50;28.90;;;;;;;6.21;87.60;98211.37;106908;1300;138232;-77
2022/10/22 04:25:04;;;;;;;48.60;28.20;;;;;;;6.20;87.90;98211.96;106905;1287;23038;-77
2022/10/22 04:27:33;;;;;;;42.50;26.90;;;;;;;6.19;87.61;98217.45;106653;1301;22308;-77
2022/10/22 04:29:59;;;;;;;54.70;30.00;;;;;;;6.16;87.84;98217.52;106446;1310;138335;-77
2022/10/22 04:32:27;;;;;;;54.30;28.80;;;;;;;6.15;87.97;98219.11;106633;1309;22418;-77
2022/10/22 04:34:53;;;;;;;47.00;28.00;;;;;;;6.15;87.95;98220.70;106464;1296;138328;-77
2022/10/22 04:37:19;;;;;;;45.90;28.20;;;;;;;6.16;88.23;98222.98;106735;1310;22605;-77
2022/10/22 04:39:45;;;;;;;47.90;27.40;;;;;;;6.16;88.07;98222.44;106621;1302;22080;-77
2022/10/22 04:42:11;;;;;;;47.70;27.70;;;;;;;6.15;88.14;98218.95;106592;1308;138547;-77
2022/10/22 04:44:38;;;;;;;49.60;28.50;;;;;;;6.14;88.03;98218.91;106661;1292;22278;-77
2022/10/22 04:47:04;;;;;;;45.30;28.00;;;;;;;6.14;88.36;98207.02;106546;1303;138216;-77
2022/10/22 04:49:30;;;;;;;48.30;28.40;;;;;;;6.14;88.14;98205.23;106555;1310;22085;-77
2022/10/22 04:51:56;;;;;;;45.50;27.20;;;;;;;6.13;88.26;98201.00;106653;1309;22091;-77
2022/10/22 04:54:22;;;;;;;51.80;28.20;;;;;;;6.13;88.32;98202.55;106512;1309;138066;-77
2022/10/22 04:56:48;;;;;;;45.70;27.00;;;;;;;6.13;88.49;98210.79;106557;1309;22426;-77
2022/10/22 04:59:14;;;;;;;46.20;27.30;;;;;;;6.13;88.63;98222.55;106529;1309;138010;-77
2022/10/22 05:01:43;;;;;;;46.90;27.10;;;;;;;6.14;88.44;98230.11;106658;1305;22192;-77
2022/10/22 05:04:12;;;;;;;49.10;27.90;;;;;;;6.14;88.80;98226.10;106915;1288;22306;-77
2022/10/22 05:06:41;;;;;;;45.40;26.70;;;;;;;6.15;88.67;98228.11;106587;1300;138169;-77
2022/10/22 05:09:12;;;;;;;48.40;26.80;;;;;;;6.14;88.57;98235.27;106727;1307;22285;-77
2022/10/22 05:11:40;;;;;;;44.30;27.50;;;;;;;6.15;88.65;98232.47;106391;1310;138577;-77
2022/10/22 05:14:08;;;;;;;40.60;24.90;;;;;;;6.17;89.04;98225.18;106608;1310;22353;-77
2022/10/22 05:16:34;;;;;;;47.30;26.70;;;;;;;6.19;89.04;98222.82;106439;1294;138190;-77
2022/10/22 05:19:01;;;;;;;41.20;25.10;;;;;;;6.21;88.83;98225.58;106656;1309;22282;-77
2022/10/22 05:21:28;;;;;;;42.00;24.70;;;;;;;6.24;88.99;98218.70;106643;1309;22136;-77
2022/10/22 05:23:54;;;;;;;42.40;24.80;;;;;;;6.26;88.81;98215.89;106525;1309;138002;-77
2022/10/22 05:26:21;;;;;;;42.60;25.20;;;;;;;6.27;88.75;98211.55;106726;1293;22288;-77
2022/10/22 05:28:49;;;;;;;40.90;24.10;;;;;;;6.29;88.62;98207.60;106605;1310;138162;-77
2022/10/22 05:31:16;;;;;;;39.60;23.90;;;;;;;6.30;88.50;98208.91;106547;1310;22139;-77
2022/10/22 05:33:43;;;;;;;37.30;23.90;;;;;;;6.30;88.32;98198.47;106682;1310;22845;-77
2022/10/22 05:36:15;;;;;;;37.10;23.70;;;;;;;6.28;88.26;98194.27;106464;1293;138378;-77
2022/10/22 05:38:41;;;;;;;41.80;25.20;;;;;;;6.27;88.14;98198.58;106459;1310;22203;-77
2022/10/22 05:41:13;;;;;;;35.70;23.80;;;;;;;6.28;88.26;98206.23;106473;1309;140946;-77
2022/10/22 05:43:39;;;;;;;39.80;25.50;;;;;;;6.30;88.48;98210.11;106610;1309;22375;-77
2022/10/22 05:46:08;;;;;;;39.20;25.90;;;;;;;6.33;88.45;98213.70;106901;1300;22241;-77
2022/10/22 05:48:35;;;;;;;38.80;25.70;;;;;;;6.34;88.44;98222.94;106476;1310;138077;-77
2022/10/22 05:51:04;;;;;;;47.50;28.40;;;;;;;6.35;88.40;98234.02;106607;1310;22243;-77
2022/10/22 05:53:32;;;;;;;42.30;27.30;;;;;;;6.37;88.50;98241.59;106543;1309;138173;-77
2022/10/22 05:56:06;;;;;;;44.60;27.80;;;;;;;6.38;88.40;98245.39;106594;1298;22256;-77
2022/10/22 05:58:33;;;;;;;43.00;26.90;;;;;;;6.39;88.24;98243.80;106504;1309;138370;-77
2022/10/22 06:01:01;;;;;;;49.40;29.10;;;;;;;6.39;88.07;98246.27;106625;1309;22197;-77
2022/10/22 06:03:28;;;;;;;47.70;28.40;;;;;;;6.39;87.70;98241.73;106597;1309;22167;-77
2022/10/22 06:05:54;;;;;;;49.50;31.20;;;;;;;6.39;88.02;98236.02;106430;1300;138508;-77
2022/10/22 06:08:20;;;;;;;50.50;31.00;;;;;;;6.39;87.99;98235.70;106643;1310;22237;-78
2022/10/22 06:10:46;;;;;;;48.30;30.70;;;;;;;6.41;88.16;98232.34;106413;1308;138817;-77
2022/10/22 06:13:12;;;;;;;52.10;32.70;;;;;;;6.43;88.04;98232.58;106625;1311;22335;-77
2022/10/22 06:15:38;;;;;;;46.90;30.30;;;;;;;6.44;88.17;98233.27;106861;1292;23273;-77
2022/10/22 06:18:04;;;;;;;51.40;31.30;;;;;;;6.48;88.19;98238.02;106417;1306;138197;-77
2022/10/22 06:20:33;;;;;;;50.50;31.50;;;;;;;6.51;88.29;98238.29;106839;1302;22871;-77
2022/10/22 06:22:59;;;;;;;49.50;29.20;;;;;;;6.55;88.33;98246.46;106380;1309;138247;-77
2022/10/22 06:25:25;;;;;;;45.40;27.00;;;;;;;6.57;87.73;98253.90;106507;1308;22269;-77
2022/10/22 06:27:52;;;;;;;33.10;21.80;;;;;;;6.57;88.02;98257.77;106600;1293;23119;-75
2022/10/22 06:30:18;;;;;;;45.90;25.70;;;;;;;6.73;90.53;98261.69;106537;1310;138761;-77
2022/10/22 06:32:44;;;;;;;44.70;27.90;;;;;;;6.97;89.46;98254.70;106635;1311;22285;-77
2022/10/22 06:35:10;;;;;;;45.50;27.60;;;;;;;7.06;88.28;98246.65;106571;1310;137981;-78
2022/10/22 06:37:36;;;;;;;48.10;27.50;;;;;;;7.10;87.91;98235.67;106592;1310;22246;-77
2022/10/22 06:40:02;;;;;;;42.50;27.40;;;;;;;7.15;87.62;98234.88;106639;1310;22181;-77
2022/10/22 06:42:29;;;;;;;48.80;28.90;;;;;;;7.18;87.58;98242.99;106512;1302;138262;-77
2022/10/22 06:44:55;;;;;;;43.80;27.50;;;;;;;7.23;87.46;98260.13;106627;1309;22942;-77
2022/10/22 06:47:21;;;;;;;46.80;28.60;;;;;;;7.30;87.60;98275.11;106552;1296;138263;-77
2022/10/22 06:49:48;;;;;;;46.20;28.70;;;;;;;7.38;87.65;98282.48;106697;1311;22429;-76
2022/10/22 06:52:14;;;;;;;51.40;29.30;;;;;;;7.45;87.61;98296.15;106681;1311;22092;-77
2022/10/22 06:54:40;;;;;;;45.70;27.40;;;;;;;7.50;87.17;98295.37;106560;1310;138120;-77
2022/10/22 06:57:06;;;;;;;48.70;28.90;;;;;;;7.53;87.08;98290.96;106630;1301;22886;-77
2022/10/22 06:59:32;;;;;;;49.30;29.30;;;;;;;7.57;87.37;98292.36;106483;1309;138241;-77
2022/10/22 07:01:58;;;;;;;51.20;30.00;;;;;;;7.60;87.28;98298.23;106644;1310;22112;-77
2022/10/22 07:04:24;;;;;;;49.20;29.50;;;;;;;7.63;87.26;98301.52;106548;1310;138192;-77
2022/10/22 07:06:53;;;;;;;47.90;28.80;;;;;;;7.69;87.52;98302.65;106640;1300;22733;-77
2022/10/22 07:09:20;;;;;;;47.60;27.80;;;;;;;7.76;87.40;98307.64;106726;1310;22070;-77
2022/10/22 07:11:46;;;;;;;53.40;30.80;;;;;;;7.86;87.45;98308.80;106606;1299;138155;-77
2022/10/22 07:14:13;;;;;;;45.90;30.20;;;;;;;7.98;87.58;98299.95;106737;1310;22146;-77
2022/10/22 07:16:44;;;;;;;45.50;28.50;;;;;;;8.10;87.70;98293.25;106600;1310;138533;-77
2022/10/22 07:19:11;;;;;;;46.20;29.20;;;;;;;8.20;87.20;98297.34;106612;1300;22268;-77
2022/10/22 07:21:38;;;;;;;51.40;29.20;;;;;;;8.28;87.14;98297.49;106895;1300;22912;-77
2022/10/22 07:24:04;;;;;;;45.20;28.40;;;;;;;8.39;87.08;98296.36;106434;1305;138498;-77
2022/10/22 07:26:31;;;;;;;46.90;27.40;;;;;;;8.51;87.10;98284.70;106590;1310;22123;-77
2022/10/22 07:28:59;;;;;;;46.80;26.70;;;;;;;8.61;86.67;98277.50;106865;1301;138438;-77
2022/10/22 07:31:25;;;;;;;43.80;26.20;;;;;;;8.69;86.42;98279.37;106693;1310;22805;-77
2022/10/22 07:33:52;;;;;;;42.40;24.70;;;;;;;8.75;86.02;98294.66;106982;1298;22074;-77
2022/10/22 07:36:18;;;;;;;45.30;25.90;;;;;;;8.83;85.55;98292.06;106569;1310;138462;-77
2022/10/22 07:38:46;;;;;;;42.90;26.40;;;;;;;8.91;85.99;98290.07;106555;1295;22093;-77
2022/10/22 07:41:14;;;;;;;37.80;23.50;;;;;;;9.01;85.85;98291.58;106443;1309;138752;-77
2022/10/22 07:43:41;;;;;;;35.30;23.20;;;;;;;9.11;85.76;98298.25;106645;1309;22995;-77
2022/10/22 07:46:07;;;;;;;40.70;23.60;;;;;;;9.20;85.51;98312.02;106649;1309;22376;-77
2022/10/22 07:48:35;;;;;;;36.20;22.00;;;;;;;9.26;85.06;98312.70;106557;1294;138133;-77
2022/10/22 07:51:03;;;;;;;36.50;21.90;;;;;;;9.32;84.70;98307.86;106724;1310;22090;-77
2022/10/22 07:53:29;;;;;;;32.40;20.70;;;;;;;9.37;84.62;98302.70;106556;1310;138311;-77
2022/10/22 07:55:55;;;;;;;33.40;21.40;;;;;;;9.41;84.20;98298.21;106734;1308;22127;-77
2022/10/22 07:58:22;;;;;;;32.30;21.50;;;;;;;9.47;84.21;98282.95;106406;1302;138579;-77
2022/10/22 08:00:49;;;;;;;35.90;21.70;;;;;;;9.55;84.12;98274.94;106634;1310;22099;-77
2022/10/22 08:03:17;;;;;;;31.40;19.90;;;;;;;9.62;83.78;98277.73;106645;1309;22200;-77
2022/10/22 08:05:43;;;;;;;38.20;22.50;;;;;;;9.70;83.23;98273.88;106523;1309;138260;-77
2022/10/22 08:08:11;;;;;;;35.40;21.90;;;;;;;9.79;82.79;98258.30;106630;1296;22145;-77
2022/10/22 08:10:37;;;;;;;35.70;23.00;;;;;;;9.90;82.80;98256.05;106512;1310;138446;-76
2022/10/22 08:13:05;;;;;;;30.90;20.10;;;;;;;10.00;82.16;98251.55;106654;1309;22167;-77
2022/10/22 08:15:31;;;;;;;32.20;20.80;;;;;;;10.09;81.69;98250.13;106531;1309;22315;-77
2022/10/22 08:17:57;;;;;;;34.90;21.30;;;;;;;10.17;81.45;98250.14;106531;1309;138365;-77
2022/10/22 08:20:23;;;;;;;33.40;20.50;;;;;;;10.26;81.18;98252.30;106546;1310;23081;-77
2022/10/22 08:22:49;;;;;;;36.00;20.70;;;;;;;10.35;81.00;98253.39;106618;1309;138709;-77
2022/10/22 08:25:17;;;;;;;35.70;20.50;;;;;;;10.43;80.73;98252.75;106754;1309;22157;-77
2022/10/22 08:27:43;;;;;;;26.20;19.00;;;;;;;10.51;80.47;98255.54;106599;1310;22236;-77
2022/10/22 08:30:10;;;;;;;33.50;19.00;;;;;;;10.55;79.77;98259.61;106540;1298;138329;-77
2022/10/22 08:32:36;;;;;;;27.80;19.10;;;;;;;10.61;79.23;98272.30;106563;1310;22301;-77
2022/10/22 08:35:03;;;;;;;30.00;18.50;;;;;;;10.68;79.46;98292.60;106583;1309;138651;-77
2022/10/22 08:37:29;;;;;;;28.10;18.60;;;;;;;10.75;79.17;98290.24;106916;1292;22127;-77
2022/10/22 08:39:55;;;;;;;29.30;18.90;;;;;;;10.79;78.88;98291.45;106706;1295;22064;-77
2022/10/22 08:42:42;;;;;;;29.50;18.50;;;;;;;10.86;78.82;98295.03;106880;1302;138312;-77
2022/10/22 08:45:14;;;;;;;27.70;16.70;;;;;;;10.92;78.45;98297.85;106666;1310;22947;-77
2022/10/22 08:48:06;;;;;;;31.50;18.10;;;;;;;10.95;78.06;98312.92;106621;1301;138369;-77
2022/10/22 08:50:39;;;;;;;25.10;16.90;;;;;;;10.97;77.88;98310.89;106595;1301;22228;-77
2022/10/22 08:53:13;;;;;;;30.30;19.20;;;;;;;10.96;77.23;98301.27;106429;1296;138549;-77
2022/10/22 08:55:40;;;;;;;31.10;18.60;;;;;;;10.95;77.23;98304.03;106653;1309;22140;-77
2022/10/22 08:58:33;;;;;;;25.60;17.60;;;;;;;10.95;77.53;98317.99;106626;1308;22114;-77
2022/10/22 09:01:04;;;;;;;27.80;17.90;;;;;;;10.96;77.22;98322.15;106668;1299;23179;-77
2022/10/22 09:03:38;;;;;;;25.80;17.50;;;;;;;10.95;76.84;98321.42;106709;1310;22072;-77
2022/10/22 09:06:13;;;;;;;26.60;18.10;;;;;;;10.93;76.82;98316.35;106581;1303;138343;-77
2022/10/22 09:08:42;;;;;;;26.20;17.10;;;;;;;10.94;77.15;98314.77;106594;1310;23030;-77
2022/10/22 09:11:19;;;;;;;27.10;17.00;;;;;;;10.95;76.90;98313.86;106511;1296;138627;-77
2022/10/22 09:13:47;;;;;;;27.10;18.10;;;;;;;10.97;77.01;98315.69;106505;1307;22089;-77
2022/10/22 09:16:19;;;;;;;25.40;17.20;;;;;;;11.01;77.17;98313.79;106637;1309;22880;-77
2022/10/22 09:18:51;;;;;;;29.80;19.00;;;;;;;11.06;77.27;98305.40;106428;1310;140289;-77
2022/10/22 09:21:42;;;;;;;30.50;19.60;;;;;;;11.13;77.59;98299.82;106711;1293;22930;-77
2022/10/22 09:24:27;;;;;;;29.60;19.30;;;;;;;11.25;77.63;98277.09;106630;1310;138746;-77
2022/10/22 09:26:55;;;;;;;28.90;18.70;;;;;;;11.37;77.56;98263.54;106736;1302;22289;-77
2022/10/22 09:29:33;;;;;;;33.60;19.80;;;;;;;11.48;77.29;98257.65;106868;1303;138350;-77
2022/10/22 09:31:59;;;;;;;27.40;17.80;;;;;;;11.59;76.99;98257.45;106903;1302;23186;-77
2022/10/22 09:34:27;;;;;;;34.30;20.30;;;;;;;11.68;76.98;98264.64;106327;1309;281422;-77
2022/10/22 09:37:04;;;;;;;35.70;22.70;;;;;;;11.75;76.82;98275.29;106893;1302;22237;-77
2022/10/22 09:39:43;;;;;;;30.60;19.40;;;;;;;11.82;76.82;98281.41;106664;1309;22077;-77
2022/10/22 09:42:10;;;;;;;28.60;20.20;;;;;;;11.85;76.34;98291.21;106860;1301;138374;-77
2022/10/22 09:44:37;;;;;;;29.30;20.10;;;;;;;11.85;76.26;98298.09;106705;1310;22827;-77
2022/10/22 09:47:24;;;;;;;26.90;18.10;;;;;;;11.83;76.01;98305.70;106599;1302;138639;-77
2022/10/22 09:50:19;;;;;;;32.10;19.60;;;;;;;11.80;75.81;98312.17;106589;1310;22101;-77
2022/10/22 09:52:56;;;;;;;31.30;19.40;;;;;;;11.75;75.90;98307.27;106591;1305;138702;-77
2022/10/22 09:55:24;;;;;;;32.50;20.50;;;;;;;11.74;75.93;98299.23;106891;1302;22107;-77
2022/10/22 09:57:58;;;;;;;29.40;20.30;;;;;;;11.75;75.78;98293.69;106664;1307;22067;-77
2022/10/22 10:00:26;;;;;;;30.60;19.90;;;;;;;11.77;76.12;98293.53;106531;1309;138504;-77
2022/10/22 10:02:57;;;;;;;35.20;22.10;;;;;;;11.79;76.31;98295.68;106622;1307;22269;-77
2022/10/22 10:05:31;;;;;;;31.60;20.90;;;;;;;11.84;76.02;98295.90;106537;1309;138358;-77
2022/10/22 10:08:04;;;;;;;33.50;21.40;;;;;;;11.85;76.20;98291.33;106638;1309;22110;-77
2022/10/22 10:10:38;;;;;;;35.60;22.60;;;;;;;11.84;76.00;98290.72;106831;1296;138633;-77
2022/10/22 10:13:23;;;;;;;33.80;21.70;;;;;;;11.83;76.22;98298.67;106657;1293;22753;-77
2022/10/22 10:16:04;;;;;;;33.00;21.80;;;;;;;11.82;76.33;98301.45;106699;1310;22098;-77
2022/10/22 10:18:56;;;;;;;31.10;20.90;;;;;;;11.80;76.28;98303.61;106500;1310;140567;-77
2022/10/22 10:21:24;;;;;;;33.50;21.50;;;;;;;11.75;76.51;98309.23;106662;1296;22274;-78
2022/10/22 10:24:13;;;;;;;33.60;21.80;;;;;;;11.73;76.64;98309.77;106521;1309;138524;-77
2022/10/22 10:26:47;;;;;;;36.70;21.40;;;;;;;11.72;76.58;98305.77;106861;1302;22504;-77
2022/10/22 10:29:30;;;;;;;35.30;19.80;;;;;;;11.71;76.76;98306.17;106549;1308;138547;-77
2022/10/22 10:31:56;;;;;;;29.60;19.20;;;;;;;11.71;76.92;98302.91;106938;1286;22214;-77
2022/10/22 10:34:42;;;;;;;34.00;20.10;;;;;;;11.71;76.80;98303.73;106704;1306;22191;-77
2022/10/22 10:37:23;;;;;;;28.30;18.70;;;;;;;11.72;76.77;98307.20;106689;1308;22898;-77
2022/10/22 10:40:03;;;;;;;28.60;19.90;;;;;;;11.73;76.62;98305.67;106710;1310;22216;-77
2022/10/22 10:42:47;;;;;;;30.00;19.50;;;;;;;11.74;76.93;98308.90;106433;1299;138434;-77
2022/10/22 10:45:29;;;;;;;32.80;18.70;;;;;;;11.75;76.56;98308.31;106558;1310;22362;-77
2022/10/22 10:48:04;;;;;;;30.40;18.00;;;;;;;11.77;76.73;98314.02;106548;1309;138518;-77
2022/10/22 10:50:49;;;;;;;28.10;18.50;;;;;;;11.77;76.77;98311.61;106652;1309;22090;-77
2022/10/22 10:53:30;;;;;;;26.70;17.80;;;;;;;11.76;76.88;98314.16;106759;1292;138352;-77
2022/10/22 10:56:07;;;;;;;24.00;16.10;;;;;;;11.77;76.77;98313.02;106652;1309;22249;-76
2022/10/22 10:58:47;;;;;;;29.40;18.50;;;;;;;11.78;77.20;98309.27;106435;1309;138772;-77
2022/10/22 11:01:34;;;;;;;30.90;19.30;;;;;;;11.81;77.58;98309.02;106582;1288;22076;-77
2022/10/22 11:04:13;;;;;;;32.80;19.90;;;;;;;11.82;77.31;98304.89;106673;1285;22353;-77
2022/10/22 11:06:42;;;;;;;33.50;19.50;;;;;;;11.81;77.60;98300.98;106549;1309;138793;-78
2022/10/22 11:09:29;;;;;;;28.90;17.90;;;;;;;11.81;77.82;98299.30;106657;1309;22855;-78
2022/10/22 11:12:04;;;;;;;29.10;18.10;;;;;;;11.79;78.05;98293.89;106422;1310;139141;-78
2022/10/22 11:14:54;;;;;;;22.30;16.40;;;;;;;11.76;77.76;98293.26;106581;1309;22232;-78
2022/10/22 11:17:22;;;;;;;25.00;16.40;;;;;;;11.72;77.91;98290.38;106483;1308;138550;-78
2022/10/22 11:20:12;;;;;;;27.80;17.40;;;;;;;11.68;77.83;98289.35;106519;1305;22522;-79
2022/10/22 11:22:51;;;;;;;28.20;17.30;;;;;;;11.64;78.50;98292.36;106483;1285;138653;-79
2022/10/22 11:25:21;;;;;;;;;;;;;;;11.62;78.91;98293.42;106956;1295;22364;-79
2022/10/22 11:28:02;;;;;;;27.30;18.10;;;;;;;11.59;79.16;98287.56;106689;1295;22229;-79